• Join FlightAware (Why Join?)
  • Login
  • US Flag 
08:50AM EST


 

Airport Tracker/Info


-or-


 

Live Flight TrackerFlight Track Log ✈ SKW4968 ✈ 15-May-2013 ✈ KSAT - KIAH

Flight Track Log - Related Links

Times and Time Zones

All times are in EDT time to prevent confusion due to time zone crossing. See the SKW4968 flight status page for this flight to view local times or setup timezone preferences in your user account.

Time Position Orientation Groundspeed Altitude Reporting Facility
EDT Latitude Longitude Course Direction KTS MPH feet Rate Location/Type
12:42PM 29.5175 -98.4525 90° East 147 169 2,000  Level Houston Center
12:43PM 29.4781 -98.3983 130° Southeast 197 227 3,900 1,860 Climbing Houston Center
12:44PM 29.4625 -98.3344 106° East 283 326 5,800 2,280 Climbing Houston Center
12:45PM 29.6412 -98.0167 North  Level FlightAware Approximate
12:45PM 29.4986 -98.2483 64° Northeast 318 366 8,200  Level Houston Center
12:46PM 29.6500 -97.9074 90° East  Level FlightAware Approximate
12:46PM 29.5422 -98.1322 67° East 320 368 11,200  Level Houston Center
12:47PM 29.6500 -97.7880 90° East  Level FlightAware Approximate
12:47PM 29.5814 -98.0244 67° East 342 394 13,500  Level Houston Center
12:48PM 29.6192 -97.9200 67° East 353 406 15,500 1,800 Climbing Houston Center
12:49PM 29.6544 -97.8167 69° East 372 428 17,300 1,740 Climbing Houston Center
12:50PM 29.6547 -97.6931 90° East 384 442 19,200 1,740 Climbing Houston Center
12:52PM 29.6539 -97.5686 90° East 386 444 21,000 1,800 Climbing Houston Center
12:53PM 29.6425 -97.4175 95° East 395 455 23,000 1,440 Climbing Houston Center
12:54PM 29.6319 -97.2875 95° East 406 467 24,000 480 Climbing Houston Center
12:55PM 29.6231 -97.1519 94° East 420 483 24,000  Level Houston Center
12:56PM 29.6117 -97.0078 95° East 447 514 24,000 -60 Level Houston Center
12:57PM 29.5992 -96.8528 95° East 476 548 23,900 -1,440 Descending Houston Center
12:58PM 29.5864 -96.6989 95° East 478 550 21,100 -3,000 Descending Houston Center
12:59PM 29.5750 -96.5533 95° East 458 527 17,700 -3,600 Descending Houston Center
01:00PM 29.5611 -96.4000 96° East 427 491 14,000 -3,660 Descending Houston Center
01:00PM 29.5569 -96.3503 95° East 425 489 12,800 -2,640 Descending Houston Center
01:01PM 29.5511 -96.2608 94° East 408 470 11,100 -2,580 Descending Houston Center
01:01PM 29.5486 -96.2264 95° East 382 440 10,200 -1,080 Descending Houston Center
01:02PM 29.5575 -96.1478 83° East 366 421 10,000 -420 Descending Houston Center
01:02PM 29.5689 -96.1208 64° Northeast 318 366 9,800 -1,080 Descending Houston Center
01:03PM 29.5956 -96.0608 63° Northeast 312 359 8,900 -840 Descending Houston Center
01:03PM 29.5961 -96.0217 89° East 266 306 8,900  Level Houston Center
01:04PM 29.6150 -95.9750 65° Northeast 276 318 8,900  Level Houston Center
01:04PM 29.6417 -95.9661 16° North 264 304 8,900  Level Houston Center
01:05PM 29.6875 -95.9531 14° North 275 316 8,900 60 Level Houston Center
01:05PM 29.7092 -95.9464 15° North 275 316 9,000 -300 Climbing Houston Center
01:06PM 29.7614 -95.9308 14° North 275 316 8,600 -840 Descending Houston Center
01:07PM 29.8506 -95.8844 24° Northeast 276 318 7,400 -1,020 Descending Houston Center
01:08PM 29.8967 -95.8508 32° Northeast 274 315 6,600 -1,020 Descending Houston Center
01:09PM 29.9550 -95.8017 36° Northeast 270 311 5,600 -840 Descending Houston Center
01:10PM 29.9914 -95.7339 58° Northeast 252 290 4,900 -360 Descending Houston Center
01:11PM 29.9925 -95.6478 89° East 228 262 4,900 -540 Level Houston Center
01:12PM 29.9914 -95.5789 91° East 228 262 3,900 -1,080 Descending Houston Center
01:13PM 29.9947 -95.5106 87° East 212 244 2,700 -1,140 Descending Houston Center